createdAt,value
2023-05-10T04:03:57.868Z,98205.28
2023-05-10T04:08:09.718Z,98217.56
2023-05-10T04:12:21.278Z,98216.94
2023-05-10T04:16:32.812Z,98212.28
2023-05-10T04:20:44.373Z,98220.94
2023-05-10T04:24:55.905Z,98222.97
2023-05-10T04:29:07.713Z,98227.81
2023-05-10T04:33:19.210Z,98225.00
2023-05-10T04:37:30.735Z,98225.19
2023-05-10T04:41:42.288Z,98230.84
2023-05-10T04:45:57.017Z,98237.75
2023-05-10T04:50:09.100Z,98245.03
2023-05-10T04:54:20.767Z,98254.97
2023-05-10T04:58:32.283Z,98248.28
2023-05-10T05:02:46.222Z,98250.53
2023-05-10T05:06:58.037Z,98256.97
2023-05-10T05:11:09.588Z,98252.94
2023-05-10T05:15:21.089Z,98255.56
2023-05-10T05:19:32.597Z,98275.75
2023-05-10T05:23:44.466Z,98278.13
2023-05-10T05:27:56.041Z,98279.75
2023-05-10T05:32:09.346Z,98275.88
2023-05-10T05:36:21.140Z,98288.59
2023-05-10T05:40:32.723Z,98265.25
2023-05-10T05:44:44.279Z,98281.91
2023-05-10T05:48:55.776Z,98285.19
2023-05-10T05:53:07.328Z,98287.56
2023-05-10T05:57:18.853Z,98280.09
2023-05-10T06:01:30.369Z,98288.06
2023-05-10T06:05:42.013Z,98292.28
2023-05-10T06:09:53.515Z,98292.88
2023-05-10T06:14:05.650Z,98299.53
2023-05-10T06:18:17.328Z,98300.50
2023-05-10T06:22:29.409Z,98311.00
2023-05-10T06:26:40.943Z,98311.06
2023-05-10T06:30:52.468Z,98315.19
2023-05-10T06:35:04.286Z,98314.81
2023-05-10T06:39:15.882Z,98320.47
2023-05-10T06:43:29.448Z,98327.69
2023-05-10T06:47:41.533Z,98328.53
2023-05-10T06:51:53.074Z,98336.19
2023-05-10T06:56:04.723Z,98340.19
2023-05-10T07:00:17.134Z,98350.13
2023-05-10T07:04:28.860Z,98355.09
2023-05-10T07:08:40.524Z,98357.34
2023-05-10T07:12:52.214Z,98359.75
2023-05-10T07:17:04.737Z,98360.34
2023-05-10T07:21:16.306Z,98367.44
2023-05-10T07:25:27.903Z,98366.66
2023-05-10T07:29:39.847Z,98368.47
2023-05-10T07:33:51.414Z,98369.28
2023-05-10T07:38:03.274Z,98376.78
2023-05-10T07:42:14.976Z,98377.00
2023-05-10T07:46:26.596Z,98386.06
2023-05-10T07:50:38.169Z,98387.03
2023-05-10T07:54:49.784Z,98384.25
2023-05-10T07:59:01.953Z,98383.50
2023-05-10T08:03:14.336Z,98382.69
2023-05-10T08:07:26.230Z,98392.38
2023-05-10T08:11:37.870Z,98391.25
2023-05-10T08:15:49.647Z,98391.47
2023-05-10T08:20:01.329Z,98383.41
2023-05-10T08:24:12.856Z,98388.66
2023-05-10T08:28:24.487Z,98392.50
2023-05-10T08:32:36.125Z,98394.09
2023-05-10T08:36:47.749Z,98401.78
2023-05-10T08:41:00.330Z,98414.66
2023-05-10T08:45:12.610Z,98415.31
2023-05-10T08:49:26.157Z,98419.34
2023-05-10T08:53:38.510Z,98415.94
2023-05-10T08:57:50.268Z,98415.13
2023-05-10T09:02:03.528Z,98411.06
2023-05-10T09:06:15.397Z,98416.16
2023-05-10T09:10:28.598Z,98421.78
2023-05-10T09:14:41.035Z,98425.66
2023-05-10T09:18:52.656Z,98440.34
2023-05-10T09:23:04.233Z,98420.56
2023-05-10T09:27:15.795Z,98415.91
2023-05-10T09:31:52.357Z,98432.03
2023-05-10T09:36:10.125Z,98439.63
2023-05-10T09:40:26.560Z,98438.28
2023-05-10T09:44:39.059Z,98436.34
2023-05-10T09:48:50.593Z,98447.44
2023-05-10T09:53:04.407Z,98463.69
2023-05-10T09:57:23.888Z,98460.44
2023-05-10T10:01:36.209Z,98456.31
2023-05-10T10:05:49.657Z,98455.06
2023-05-10T10:10:01.519Z,98444.97
2023-05-10T10:14:13.660Z,98461.59
2023-05-10T10:18:28.322Z,98459.19
2023-05-10T10:22:40.756Z,98461.78
2023-05-10T10:26:58.185Z,98456.09
2023-05-10T10:31:30.463Z,98454.63
2023-05-10T10:35:44.583Z,98457.44
2023-05-10T10:39:57.313Z,98455.22
2023-05-10T10:44:27.914Z,98469.16
2023-05-10T10:48:40.361Z,98470.53
2023-05-10T10:52:53.356Z,98467.53
2023-05-10T10:57:14.143Z,98476.63
2023-05-10T11:01:34.814Z,98475.78
2023-05-10T11:05:48.491Z,98475.78
2023-05-10T11:10:06.472Z,98479.72
2023-05-10T11:14:22.613Z,98479.72
2023-05-10T11:18:34.445Z,98477.97
2023-05-10T11:22:56.484Z,98472.09
2023-05-10T11:27:09.146Z,98481.16
2023-05-10T11:31:22.455Z,98485.91
2023-05-10T11:35:42.504Z,98490.41
2023-05-10T11:39:56.582Z,98492.00
2023-05-10T11:44:10.836Z,98497.66
2023-05-10T11:48:25.268Z,98491.72
2023-05-10T11:52:38.917Z,98484.94
2023-05-10T11:56:51.738Z,98475.09
2023-05-10T12:01:05.682Z,98482.94
2023-05-10T12:05:18.458Z,98478.09
2023-05-10T12:09:43.058Z,98471.72
2023-05-10T12:13:57.600Z,98462.34
2023-05-10T12:18:12.253Z,98466.78
2023-05-10T12:22:24.364Z,98469.50
2023-05-10T12:26:37.102Z,98453.88
2023-05-10T12:30:49.343Z,98462.50
2023-05-10T12:35:01.403Z,98443.88
2023-05-10T12:39:13.288Z,98457.38
2023-05-10T12:43:25.909Z,98447.13
2023-05-10T12:47:39.243Z,98450.91
2023-05-10T12:51:51.844Z,98463.91
2023-05-10T12:56:03.552Z,98466.34
2023-05-10T13:00:15.791Z,98454.06
2023-05-10T13:04:28.189Z,98458.66
2023-05-10T13:08:40.164Z,98455.75
2023-05-10T13:12:52.362Z,98443.69
2023-05-10T13:17:04.290Z,98444.28
2023-05-10T13:21:16.235Z,98434.75
2023-05-10T13:25:27.809Z,98433.75
2023-05-10T13:29:39.445Z,98429.22
2023-05-10T13:33:51.192Z,98422.44
2023-05-10T13:38:03.001Z,98427.34
2023-05-10T13:42:14.626Z,98421.53
2023-05-10T13:46:26.534Z,98421.28
2023-05-10T13:50:38.036Z,98424.34
2023-05-10T13:54:49.639Z,98416.03
2023-05-10T13:59:01.427Z,98414.22
2023-05-10T14:03:13.072Z,98412.69
2023-05-10T14:07:24.686Z,98408.09
2023-05-10T14:11:36.241Z,98400.06
2023-05-10T14:15:47.790Z,98399.28
2023-05-10T14:19:59.480Z,98397.22
2023-05-10T14:24:11.107Z,98391.97
2023-05-10T14:28:23.617Z,98399.47
2023-05-10T14:32:37.472Z,98399.88
2023-05-10T14:36:49.020Z,98390.91
2023-05-10T14:41:00.531Z,98392.97
2023-05-10T14:45:12.991Z,98390.25
2023-05-10T14:49:26.560Z,98395.75
2023-05-10T14:53:38.045Z,98397.34
2023-05-10T14:57:51.213Z,98397.59
2023-05-10T15:02:02.736Z,98389.16
2023-05-10T15:06:16.756Z,98387.25
2023-05-10T15:10:28.263Z,98383.91
2023-05-10T15:14:40.848Z,98390.19
2023-05-10T15:18:52.405Z,98397.78
2023-05-10T15:23:04.130Z,98403.56
2023-05-10T15:27:15.676Z,98401.06
2023-05-10T15:31:28.123Z,98408.50
2023-05-10T15:35:40.505Z,98424.41
2023-05-10T15:39:52.027Z,98433.78
2023-05-10T15:44:03.674Z,98440.03
2023-05-10T15:48:15.218Z,98457.84
2023-05-10T15:52:27.231Z,98469.59
2023-05-10T15:56:39.350Z,98484.03
2023-05-10T16:00:50.942Z,98479.84
2023-05-10T16:05:02.562Z,98478.44
2023-05-10T16:09:14.319Z,98470.31
2023-05-10T16:13:26.229Z,98468.88
2023-05-10T16:17:37.938Z,98468.38
2023-05-10T16:21:49.931Z,98465.06
2023-05-10T16:26:01.449Z,98468.25
2023-05-10T16:30:13.077Z,98450.16
2023-05-10T16:34:25.373Z,98453.50
2023-05-10T16:38:37.631Z,98460.84
2023-05-10T16:42:49.227Z,98454.13
2023-05-10T16:47:00.774Z,98458.09
2023-05-10T16:51:12.407Z,98463.06
2023-05-10T16:55:26.248Z,98456.56
2023-05-10T16:59:38.203Z,98453.56
2023-05-10T17:03:49.885Z,98455.81
2023-05-10T17:08:01.626Z,98457.25
2023-05-10T17:12:13.161Z,98457.28
2023-05-10T17:16:24.752Z,98459.47
2023-05-10T17:20:36.262Z,98462.75
2023-05-10T17:24:47.758Z,98461.97
2023-05-10T17:28:59.255Z,98469.72
2023-05-10T17:33:10.875Z,98462.28
2023-05-10T17:37:22.849Z,98465.09
2023-05-10T17:41:34.377Z,98474.00
2023-05-10T17:45:47.925Z,98472.31
2023-05-10T17:49:59.518Z,98467.84
2023-05-10T17:54:11.011Z,98470.69
2023-05-10T17:58:22.601Z,98474.91
2023-05-10T18:02:36.655Z,98479.03
2023-05-10T18:06:49.257Z,98486.88
2023-05-10T18:11:01.026Z,98479.16
2023-05-10T18:15:12.611Z,98487.19
2023-05-10T18:19:27.066Z,98483.53
2023-05-10T18:23:38.686Z,98492.34
2023-05-10T18:27:50.502Z,98495.56
2023-05-10T18:32:01.994Z,98492.84
2023-05-10T18:36:14.160Z,98501.91
2023-05-10T18:40:26.903Z,98503.19
2023-05-10T18:44:38.430Z,98498.69
2023-05-10T18:48:49.936Z,98499.25
2023-05-10T18:53:01.479Z,98498.94
2023-05-10T18:57:13.732Z,98502.41
2023-05-10T19:01:25.470Z,98498.50
2023-05-10T19:05:37.052Z,98508.69
2023-05-10T19:09:48.554Z,98515.84
2023-05-10T19:14:01.337Z,98515.50
2023-05-10T19:18:12.874Z,98519.31
2023-05-10T19:22:35.403Z,98525.22
2023-05-10T19:26:56.229Z,98531.56
2023-05-10T19:31:08.029Z,98537.16
2023-05-10T19:35:19.645Z,98540.09
2023-05-10T19:39:32.502Z,98543.78
2023-05-10T19:43:43.990Z,98544.97
2023-05-10T19:47:55.551Z,98540.44
2023-05-10T19:52:11.873Z,98541.00
2023-05-10T19:56:23.555Z,98546.84
2023-05-10T20:00:35.504Z,98553.50
2023-05-10T20:04:47.221Z,98554.75
2023-05-10T20:08:58.724Z,98558.63
2023-05-10T20:13:10.225Z,98562.19
2023-05-10T20:17:21.855Z,98568.72
2023-05-10T20:21:33.724Z,98568.94
2023-05-10T20:25:45.310Z,98571.59
2023-05-10T20:29:56.824Z,98577.69
2023-05-10T20:34:08.354Z,98572.00
2023-05-10T20:38:19.886Z,98580.53
2023-05-10T20:42:31.472Z,98574.69
2023-05-10T20:46:43.297Z,98579.94
2023-05-10T20:50:54.870Z,98576.56
2023-05-10T20:55:06.943Z,98569.94
2023-05-10T20:59:19.075Z,98578.63
2023-05-10T21:03:30.597Z,98584.69
2023-05-10T21:07:42.102Z,98578.69
2023-05-10T21:11:53.621Z,98584.03
2023-05-10T21:16:05.338Z,98586.34
2023-05-10T21:20:17.141Z,98583.31
2023-05-10T21:24:29.037Z,98584.13
2023-05-10T21:28:42.356Z,98582.84
